sensor_id;sensor_type;location;lat;lon;timestamp;pressure;altitude;pressure_sealevel;temperature;humidity
56689;BME280;42565;53.342;-1.534;2023-04-29T00:02:08;99162.29;;;11.00;66.58
56689;BME280;42565;53.342;-1.534;2023-04-29T00:04:36;99164.06;;;11.70;65.90
56689;BME280;42565;53.342;-1.534;2023-04-29T00:07:03;99165.22;;;11.66;66.04
56689;BME280;42565;53.342;-1.534;2023-04-29T00:09:30;99167.87;;;11.75;65.78
56689;BME280;42565;53.342;-1.534;2023-04-29T00:11:58;99167.70;;;11.25;67.57
56689;BME280;42565;53.342;-1.534;2023-04-29T00:14:25;99168.80;;;11.61;65.95
56689;BME280;42565;53.342;-1.534;2023-04-29T00:16:52;99167.41;;;11.66;65.15
56689;BME280;42565;53.342;-1.534;2023-04-29T00:19:19;99168.21;;;12.31;65.04
56689;BME280;42565;53.342;-1.534;2023-04-29T00:21:46;99166.88;;;12.41;64.05
56689;BME280;42565;53.342;-1.534;2023-04-29T00:24:13;99169.30;;;12.33;63.15
56689;BME280;42565;53.342;-1.534;2023-04-29T00:26:40;99171.82;;;12.52;62.02
56689;BME280;42565;53.342;-1.534;2023-04-29T00:29:07;99173.75;;;12.56;61.87
56689;BME280;42565;53.342;-1.534;2023-04-29T00:31:34;99177.39;;;12.58;61.88
56689;BME280;42565;53.342;-1.534;2023-04-29T00:34:01;99178.53;;;13.06;62.36
56689;BME280;42565;53.342;-1.534;2023-04-29T00:36:28;99182.74;;;12.66;61.92
56689;BME280;42565;53.342;-1.534;2023-04-29T00:38:55;99184.53;;;12.28;63.39
56689;BME280;42565;53.342;-1.534;2023-04-29T00:41:23;99184.50;;;12.72;63.93
56689;BME280;42565;53.342;-1.534;2023-04-29T00:43:50;99187.42;;;11.65;65.38
56689;BME280;42565;53.342;-1.534;2023-04-29T00:46:17;99187.32;;;11.61;66.10
56689;BME280;42565;53.342;-1.534;2023-04-29T00:48:44;99189.04;;;12.10;65.30
56689;BME280;42565;53.342;-1.534;2023-04-29T00:51:11;99181.65;;;11.44;66.08
56689;BME280;42565;53.342;-1.534;2023-04-29T00:53:41;99182.06;;;12.35;64.88
56689;BME280;42565;53.342;-1.534;2023-04-29T00:56:08;99182.75;;;11.76;64.83
56689;BME280;42565;53.342;-1.534;2023-04-29T00:58:35;99186.76;;;11.31;66.40
56689;BME280;42565;53.342;-1.534;2023-04-29T01:01:04;99189.31;;;11.48;66.09
56689;BME280;42565;53.342;-1.534;2023-04-29T01:03:31;99190.20;;;11.96;66.05
56689;BME280;42565;53.342;-1.534;2023-04-29T01:06:06;99189.82;;;11.92;65.78
56689;BME280;42565;53.342;-1.534;2023-04-29T01:08:43;99192.69;;;11.05;67.53
56689;BME280;42565;53.342;-1.534;2023-04-29T01:11:15;99191.04;;;11.16;67.34
56689;BME280;42565;53.342;-1.534;2023-04-29T01:13:51;99193.06;;;11.49;66.89
56689;BME280;42565;53.342;-1.534;2023-04-29T01:16:25;99192.27;;;12.13;65.33
56689;BME280;42565;53.342;-1.534;2023-04-29T01:18:57;99192.10;;;11.83;65.23
56689;BME280;42565;53.342;-1.534;2023-04-29T01:21:28;99190.98;;;12.07;65.27
56689;BME280;42565;53.342;-1.534;2023-04-29T01:23:55;99191.30;;;12.12;64.95
56689;BME280;42565;53.342;-1.534;2023-04-29T01:26:22;99190.48;;;11.26;66.46
56689;BME280;42565;53.342;-1.534;2023-04-29T01:28:53;99192.24;;;11.37;66.98
56689;BME280;42565;53.342;-1.534;2023-04-29T01:31:30;99194.01;;;11.04;68.11
56689;BME280;42565;53.342;-1.534;2023-04-29T01:34:07;99195.17;;;10.78;68.95
56689;BME280;42565;53.342;-1.534;2023-04-29T01:36:50;99196.59;;;10.55;70.22
56689;BME280;42565;53.342;-1.534;2023-04-29T01:39:24;99195.03;;;10.21;70.68
56689;BME280;42565;53.342;-1.534;2023-04-29T01:41:56;99195.08;;;10.79;69.82
56689;BME280;42565;53.342;-1.534;2023-04-29T01:44:29;99190.04;;;11.05;69.03
56689;BME280;42565;53.342;-1.534;2023-04-29T01:47:00;99190.88;;;10.81;69.45
56689;BME280;42565;53.342;-1.534;2023-04-29T01:49:28;99192.71;;;10.78;69.59
56689;BME280;42565;53.342;-1.534;2023-04-29T01:51:56;99194.50;;;10.84;69.67
56689;BME280;42565;53.342;-1.534;2023-04-29T01:54:23;99191.21;;;11.31;67.69
56689;BME280;42565;53.342;-1.534;2023-04-29T01:56:50;99197.68;;;10.99;68.19
56689;BME280;42565;53.342;-1.534;2023-04-29T01:59:18;99199.10;;;11.22;67.70
56689;BME280;42565;53.342;-1.534;2023-04-29T02:01:45;99203.68;;;10.85;69.07
56689;BME280;42565;53.342;-1.534;2023-04-29T02:04:12;99203.31;;;10.89;68.43
56689;BME280;42565;53.342;-1.534;2023-04-29T02:06:39;99204.14;;;11.38;67.49
56689;BME280;42565;53.342;-1.534;2023-04-29T02:09:06;99202.49;;;10.82;66.99
56689;BME280;42565;53.342;-1.534;2023-04-29T02:11:32;99204.79;;;10.93;67.21
56689;BME280;42565;53.342;-1.534;2023-04-29T02:14:00;99201.15;;;11.80;66.33
56689;BME280;42565;53.342;-1.534;2023-04-29T02:16:27;99204.13;;;11.34;65.31
56689;BME280;42565;53.342;-1.534;2023-04-29T02:18:54;99204.80;;;11.74;64.52
56689;BME280;42565;53.342;-1.534;2023-04-29T02:21:21;99208.34;;;11.00;66.00
56689;BME280;42565;53.342;-1.534;2023-04-29T02:23:49;99208.25;;;10.87;66.97
56689;BME280;42565;53.342;-1.534;2023-04-29T02:26:15;99209.79;;;11.07;66.53
56689;BME280;42565;53.342;-1.534;2023-04-29T02:28:43;99214.67;;;11.00;67.94
56689;BME280;42565;53.342;-1.534;2023-04-29T02:31:10;99215.85;;;10.05;69.24
56689;BME280;42565;53.342;-1.534;2023-04-29T02:33:37;99216.46;;;10.40;69.90
56689;BME280;42565;53.342;-1.534;2023-04-29T02:36:05;99215.39;;;10.13;70.13
56689;BME280;42565;53.342;-1.534;2023-04-29T02:38:32;99219.63;;;10.62;68.93
56689;BME280;42565;53.342;-1.534;2023-04-29T02:40:59;99217.17;;;10.67;68.51
56689;BME280;42565;53.342;-1.534;2023-04-29T02:43:26;99212.32;;;10.91;67.56
56689;BME280;42565;53.342;-1.534;2023-04-29T02:45:53;99210.68;;;11.37;66.06
56689;BME280;42565;53.342;-1.534;2023-04-29T02:48:20;99214.36;;;10.79;68.20
56689;BME280;42565;53.342;-1.534;2023-04-29T02:50:47;99211.00;;;10.43;69.61
56689;BME280;42565;53.342;-1.534;2023-04-29T02:53:15;99209.18;;;10.51;69.64
56689;BME280;42565;53.342;-1.534;2023-04-29T02:55:42;99212.40;;;10.51;70.31
56689;BME280;42565;53.342;-1.534;2023-04-29T02:58:09;99211.13;;;9.65;72.28
56689;BME280;42565;53.342;-1.534;2023-04-29T03:00:36;99210.07;;;9.96;71.99
56689;BME280;42565;53.342;-1.534;2023-04-29T03:03:04;99209.62;;;10.13;71.62
56689;BME280;42565;53.342;-1.534;2023-04-29T03:05:31;99208.93;;;10.06;70.87
56689;BME280;42565;53.342;-1.534;2023-04-29T03:07:58;99209.98;;;10.22;71.54
56689;BME280;42565;53.342;-1.534;2023-04-29T03:10:25;99211.42;;;9.72;72.07
56689;BME280;42565;53.342;-1.534;2023-04-29T03:12:52;99215.56;;;10.10;71.81
56689;BME280;42565;53.342;-1.534;2023-04-29T03:15:18;99215.05;;;10.35;70.97
56689;BME280;42565;53.342;-1.534;2023-04-29T03:17:45;99217.92;;;10.36;70.85
56689;BME280;42565;53.342;-1.534;2023-04-29T03:20:12;99217.58;;;10.04;71.75
56689;BME280;42565;53.342;-1.534;2023-04-29T03:22:39;99218.57;;;10.06;72.08
56689;BME280;42565;53.342;-1.534;2023-04-29T03:25:07;99218.08;;;9.77;72.23
56689;BME280;42565;53.342;-1.534;2023-04-29T03:27:34;99219.73;;;9.92;72.74
56689;BME280;42565;53.342;-1.534;2023-04-29T03:30:02;99219.62;;;9.69;72.68
56689;BME280;42565;53.342;-1.534;2023-04-29T03:32:29;99220.78;;;10.13;72.24
56689;BME280;42565;53.342;-1.534;2023-04-29T03:34:55;99224.50;;;10.20;72.07
56689;BME280;42565;53.342;-1.534;2023-04-29T03:37:23;99222.87;;;10.19;72.04
56689;BME280;42565;53.342;-1.534;2023-04-29T03:39:49;99221.24;;;10.88;69.24
56689;BME280;42565;53.342;-1.534;2023-04-29T03:42:16;99221.31;;;10.99;67.74
56689;BME280;42565;53.342;-1.534;2023-04-29T03:44:43;99220.62;;;11.10;67.96
56689;BME280;42565;53.342;-1.534;2023-04-29T03:47:10;99219.78;;;11.23;67.02
56689;BME280;42565;53.342;-1.534;2023-04-29T03:49:37;99224.04;;;10.29;69.74
56689;BME280;42565;53.342;-1.534;2023-04-29T03:52:04;99226.52;;;10.27;70.16
56689;BME280;42565;53.342;-1.534;2023-04-29T03:54:32;99228.75;;;10.65;70.76
56689;BME280;42565;53.342;-1.534;2023-04-29T03:56:59;99231.05;;;10.20;71.53
56689;BME280;42565;53.342;-1.534;2023-04-29T03:59:26;99232.68;;;10.42;71.19
56689;BME280;42565;53.342;-1.534;2023-04-29T04:01:53;99234.38;;;10.58;70.50
56689;BME280;42565;53.342;-1.534;2023-04-29T04:04:20;99236.95;;;10.42;71.07
56689;BME280;42565;53.342;-1.534;2023-04-29T04:06:47;99241.43;;;10.33;71.31
56689;BME280;42565;53.342;-1.534;2023-04-29T04:09:14;99239.90;;;10.35;70.68
56689;BME280;42565;53.342;-1.534;2023-04-29T04:11:41;99243.51;;;10.46;70.73
56689;BME280;42565;53.342;-1.534;2023-04-29T04:14:08;99245.63;;;10.49;70.06
56689;BME280;42565;53.342;-1.534;2023-04-29T04:16:35;99245.39;;;10.86;69.46
56689;BME280;42565;53.342;-1.534;2023-04-29T04:19:03;99245.44;;;10.69;69.20
56689;BME280;42565;53.342;-1.534;2023-04-29T04:21:29;99248.21;;;10.46;69.38
56689;BME280;42565;53.342;-1.534;2023-04-29T04:23:56;99243.43;;;10.94;68.96
56689;BME280;42565;53.342;-1.534;2023-04-29T04:26:23;99244.47;;;10.88;68.42
56689;BME280;42565;53.342;-1.534;2023-04-29T04:28:50;99245.29;;;11.58;66.64
56689;BME280;42565;53.342;-1.534;2023-04-29T04:31:17;99241.45;;;11.60;66.02
56689;BME280;42565;53.342;-1.534;2023-04-29T04:33:44;99243.44;;;12.04;64.93
56689;BME280;42565;53.342;-1.534;2023-04-29T04:36:11;99243.73;;;11.47;64.85
56689;BME280;42565;53.342;-1.534;2023-04-29T04:38:38;99243.21;;;12.12;64.46
56689;BME280;42565;53.342;-1.534;2023-04-29T04:41:05;99246.99;;;11.56;64.27
56689;BME280;42565;53.342;-1.534;2023-04-29T04:43:33;99244.36;;;11.67;63.98
56689;BME280;42565;53.342;-1.534;2023-04-29T04:45:59;99248.85;;;12.07;63.93
56689;BME280;42565;53.342;-1.534;2023-04-29T04:48:26;99253.75;;;11.65;63.69
56689;BME280;42565;53.342;-1.534;2023-04-29T04:50:53;99255.74;;;12.04;63.88
56689;BME280;42565;53.342;-1.534;2023-04-29T04:53:20;99258.86;;;11.99;63.26
56689;BME280;42565;53.342;-1.534;2023-04-29T04:55:47;99262.71;;;11.83;64.02
56689;BME280;42565;53.342;-1.534;2023-04-29T04:58:14;99265.90;;;11.73;64.13
56689;BME280;42565;53.342;-1.534;2023-04-29T05:00:43;99268.26;;;11.18;65.01
56689;BME280;42565;53.342;-1.534;2023-04-29T05:03:10;99275.27;;;11.19;65.66
56689;BME280;42565;53.342;-1.534;2023-04-29T05:05:37;99277.83;;;10.65;67.03
56689;BME280;42565;53.342;-1.534;2023-04-29T05:08:04;99280.85;;;10.42;67.85
56689;BME280;42565;53.342;-1.534;2023-04-29T05:10:35;99281.28;;;10.48;68.99
56689;BME280;42565;53.342;-1.534;2023-04-29T05:13:02;99281.33;;;9.81;71.00
56689;BME280;42565;53.342;-1.534;2023-04-29T05:15:29;99282.16;;;9.79;71.30
56689;BME280;42565;53.342;-1.534;2023-04-29T05:17:56;99288.71;;;9.54;72.45
56689;BME280;42565;53.342;-1.534;2023-04-29T05:20:23;99289.67;;;9.93;71.50
56689;BME280;42565;53.342;-1.534;2023-04-29T05:22:50;99289.52;;;10.48;70.08
56689;BME280;42565;53.342;-1.534;2023-04-29T05:25:17;99293.21;;;10.79;68.25
56689;BME280;42565;53.342;-1.534;2023-04-29T05:27:44;99295.45;;;11.38;66.60
56689;BME280;42565;53.342;-1.534;2023-04-29T05:30:12;99297.93;;;11.92;65.07
56689;BME280;42565;53.342;-1.534;2023-04-29T05:32:39;99296.83;;;12.17;64.37
56689;BME280;42565;53.342;-1.534;2023-04-29T05:35:06;99296.89;;;11.84;63.80
56689;BME280;42565;53.342;-1.534;2023-04-29T05:37:33;99297.79;;;12.17;63.02
56689;BME280;42565;53.342;-1.534;2023-04-29T05:40:00;99301.05;;;12.56;62.58
56689;BME280;42565;53.342;-1.534;2023-04-29T05:42:26;99302.27;;;12.47;62.31
56689;BME280;42565;53.342;-1.534;2023-04-29T05:44:53;99301.25;;;12.89;62.01
56689;BME280;42565;53.342;-1.534;2023-04-29T05:47:20;99300.67;;;12.68;62.11
56689;BME280;42565;53.342;-1.534;2023-04-29T05:49:47;99298.33;;;12.62;62.32
56689;BME280;42565;53.342;-1.534;2023-04-29T05:52:15;99301.31;;;12.52;62.85
56689;BME280;42565;53.342;-1.534;2023-04-29T05:54:42;99300.13;;;12.78;63.87
56689;BME280;42565;53.342;-1.534;2023-04-29T05:57:09;99299.86;;;12.29;64.30
56689;BME280;42565;53.342;-1.534;2023-04-29T05:59:36;99300.14;;;12.55;64.95
56689;BME280;42565;53.342;-1.534;2023-04-29T06:02:04;99300.97;;;12.64;64.14
56689;BME280;42565;53.342;-1.534;2023-04-29T06:04:31;99296.28;;;12.87;63.71
56689;BME280;42565;53.342;-1.534;2023-04-29T06:06:57;99298.58;;;13.33;63.49
56689;BME280;42565;53.342;-1.534;2023-04-29T06:09:25;99297.76;;;13.11;62.88
56689;BME280;42565;53.342;-1.534;2023-04-29T06:11:52;99298.80;;;13.55;62.57
56689;BME280;42565;53.342;-1.534;2023-04-29T06:14:18;99295.83;;;13.12;62.42
56689;BME280;42565;53.342;-1.534;2023-04-29T06:16:46;99296.98;;;13.39;61.91
56689;BME280;42565;53.342;-1.534;2023-04-29T06:19:12;99298.99;;;13.54;61.47
56689;BME280;42565;53.342;-1.534;2023-04-29T06:21:39;99302.84;;;13.95;61.50
56689;BME280;42565;53.342;-1.534;2023-04-29T06:24:06;99308.06;;;13.34;61.27
56689;BME280;42565;53.342;-1.534;2023-04-29T06:26:33;99310.50;;;13.63;62.27
56689;BME280;42565;53.342;-1.534;2023-04-29T06:28:59;99312.41;;;13.74;62.28
56689;BME280;42565;53.342;-1.534;2023-04-29T06:31:27;99312.04;;;13.97;61.88
56689;BME280;42565;53.342;-1.534;2023-04-29T06:33:53;99315.19;;;14.32;61.15
56689;BME280;42565;53.342;-1.534;2023-04-29T06:36:21;99316.48;;;14.06;61.08
56689;BME280;42565;53.342;-1.534;2023-04-29T06:38:47;99314.77;;;14.52;61.33
56689;BME280;42565;53.342;-1.534;2023-04-29T06:41:14;99316.05;;;14.48;60.88
56689;BME280;42565;53.342;-1.534;2023-04-29T06:43:41;99316.55;;;14.69;62.09
56689;BME280;42565;53.342;-1.534;2023-04-29T06:46:08;99318.51;;;14.19;60.52
56689;BME280;42565;53.342;-1.534;2023-04-29T06:48:35;99322.53;;;15.03;59.93
56689;BME280;42565;53.342;-1.534;2023-04-29T06:51:02;99324.31;;;14.70;60.98
56689;BME280;42565;53.342;-1.534;2023-04-29T06:53:29;99324.34;;;14.57;60.15
56689;BME280;42565;53.342;-1.534;2023-04-29T06:55:56;99326.74;;;14.94;60.09
56689;BME280;42565;53.342;-1.534;2023-04-29T06:58:24;99328.69;;;13.90;65.00
56689;BME280;42565;53.342;-1.534;2023-04-29T07:00:50;99330.60;;;14.21;62.21
56689;BME280;42565;53.342;-1.534;2023-04-29T07:03:18;99330.02;;;14.55;62.36
56689;BME280;42565;53.342;-1.534;2023-04-29T07:05:45;99334.53;;;13.75;62.86
56689;BME280;42565;53.342;-1.534;2023-04-29T07:08:13;99340.90;;;14.29;61.45
56689;BME280;42565;53.342;-1.534;2023-04-29T07:10:40;99343.51;;;14.22;61.48
56689;BME280;42565;53.342;-1.534;2023-04-29T07:13:07;99352.07;;;14.26;61.24
56689;BME280;42565;53.342;-1.534;2023-04-29T07:15:35;99355.13;;;14.05;63.18
56689;BME280;42565;53.342;-1.534;2023-04-29T07:18:03;99359.54;;;14.26;62.61
56689;BME280;42565;53.342;-1.534;2023-04-29T07:20:30;99361.84;;;14.37;61.15
56689;BME280;42565;53.342;-1.534;2023-04-29T07:22:58;99361.66;;;14.52;60.41
56689;BME280;42565;53.342;-1.534;2023-04-29T07:25:26;99364.30;;;14.48;60.34
56689;BME280;42565;53.342;-1.534;2023-04-29T07:27:53;99363.92;;;14.09;62.52
56689;BME280;42565;53.342;-1.534;2023-04-29T07:30:19;99362.50;;;13.43;65.11
56689;BME280;42565;53.342;-1.534;2023-04-29T07:32:46;99367.68;;;13.97;64.37
56689;BME280;42565;53.342;-1.534;2023-04-29T07:35:13;99366.53;;;13.70;63.89
56689;BME280;42565;53.342;-1.534;2023-04-29T07:37:40;99365.55;;;14.42;64.39
56689;BME280;42565;53.342;-1.534;2023-04-29T07:40:08;99368.54;;;14.12;62.40
56689;BME280;42565;53.342;-1.534;2023-04-29T07:42:35;99366.66;;;14.48;61.93
56689;BME280;42565;53.342;-1.534;2023-04-29T07:45:03;99365.12;;;14.70;61.79
56689;BME280;42565;53.342;-1.534;2023-04-29T07:47:30;99361.42;;;14.51;60.41
56689;BME280;42565;53.342;-1.534;2023-04-29T07:49:58;99360.83;;;14.75;60.69
56689;BME280;42565;53.342;-1.534;2023-04-29T07:52:25;99362.66;;;14.48;60.53
56689;BME280;42565;53.342;-1.534;2023-04-29T07:54:52;99364.76;;;14.74;62.02
56689;BME280;42565;53.342;-1.534;2023-04-29T07:57:19;99369.22;;;13.94;62.51
56689;BME280;42565;53.342;-1.534;2023-04-29T07:59:46;99370.41;;;14.21;62.82
56689;BME280;42565;53.342;-1.534;2023-04-29T08:02:16;99372.40;;;14.49;61.55
56689;BME280;42565;53.342;-1.534;2023-04-29T08:04:44;99378.07;;;14.45;61.06
56689;BME280;42565;53.342;-1.534;2023-04-29T08:07:11;99380.42;;;13.97;60.73
56689;BME280;42565;53.342;-1.534;2023-04-29T08:09:39;99379.09;;;14.14;61.21
56689;BME280;42565;53.342;-1.534;2023-04-29T08:12:07;99381.08;;;13.94;61.84
56689;BME280;42565;53.342;-1.534;2023-04-29T08:14:34;99381.33;;;14.56;61.42
56689;BME280;42565;53.342;-1.534;2023-04-29T08:17:01;99384.62;;;14.55;57.92
56689;BME280;42565;53.342;-1.534;2023-04-29T08:19:28;99385.56;;;14.55;59.22
56689;BME280;42565;53.342;-1.534;2023-04-29T08:21:55;99385.60;;;14.67;61.15
56689;BME280;42565;53.342;-1.534;2023-04-29T08:24:22;99384.20;;;14.35;63.00
56689;BME280;42565;53.342;-1.534;2023-04-29T08:26:49;99382.55;;;14.19;63.99
56689;BME280;42565;53.342;-1.534;2023-04-29T08:29:16;99385.38;;;14.26;63.23
56689;BME280;42565;53.342;-1.534;2023-04-29T08:31:43;99387.14;;;14.35;63.23
56689;BME280;42565;53.342;-1.534;2023-04-29T08:34:10;99383.56;;;13.69;65.68
56689;BME280;42565;53.342;-1.534;2023-04-29T08:36:37;99387.34;;;13.97;64.96
56689;BME280;42565;53.342;-1.534;2023-04-29T08:39:05;99387.55;;;13.75;65.14
56689;BME280;42565;53.342;-1.534;2023-04-29T08:41:31;99388.56;;;14.10;64.04
56689;BME280;42565;53.342;-1.534;2023-04-29T08:43:59;99397.17;;;14.89;62.09
56689;BME280;42565;53.342;-1.534;2023-04-29T08:46:26;99403.44;;;14.63;61.56
56689;BME280;42565;53.342;-1.534;2023-04-29T08:48:54;99406.20;;;14.56;60.82
56689;BME280;42565;53.342;-1.534;2023-04-29T08:51:22;99407.68;;;15.02;60.53
56689;BME280;42565;53.342;-1.534;2023-04-29T08:53:49;99401.82;;;15.15;58.94
56689;BME280;42565;53.342;-1.534;2023-04-29T08:56:17;99400.98;;;15.28;58.77
56689;BME280;42565;53.342;-1.534;2023-04-29T08:58:45;99399.91;;;16.40;56.19
56689;BME280;42565;53.342;-1.534;2023-04-29T09:01:13;99402.92;;;15.82;56.65
56689;BME280;42565;53.342;-1.534;2023-04-29T09:03:46;99407.51;;;16.06;56.51
56689;BME280;42565;53.342;-1.534;2023-04-29T09:06:16;99409.46;;;16.42;56.61
56689;BME280;42565;53.342;-1.534;2023-04-29T09:08:43;99411.99;;;16.35;55.74
56689;BME280;42565;53.342;-1.534;2023-04-29T09:11:11;99414.96;;;16.58;56.09
56689;BME280;42565;53.342;-1.534;2023-04-29T09:13:40;99418.33;;;16.25;56.23
56689;BME280;42565;53.342;-1.534;2023-04-29T09:16:10;99417.44;;;15.36;56.61
56689;BME280;42565;53.342;-1.534;2023-04-29T09:18:46;99416.19;;;15.36;57.84
56689;BME280;42565;53.342;-1.534;2023-04-29T09:21:16;99415.18;;;15.18;57.94
56689;BME280;42565;53.342;-1.534;2023-04-29T09:23:44;99415.70;;;15.19;58.15
56689;BME280;42565;53.342;-1.534;2023-04-29T09:26:11;99420.27;;;14.58;59.25
56689;BME280;42565;53.342;-1.534;2023-04-29T09:28:38;99419.38;;;15.07;59.45
56689;BME280;42565;53.342;-1.534;2023-04-29T09:31:05;99425.24;;;15.16;58.75
56689;BME280;42565;53.342;-1.534;2023-04-29T09:33:48;99429.74;;;15.60;57.71
56689;BME280;42565;53.342;-1.534;2023-04-29T09:36:35;99427.67;;;15.99;56.40
56689;BME280;42565;53.342;-1.534;2023-04-29T09:39:02;99425.47;;;16.49;56.14
56689;BME280;42565;53.342;-1.534;2023-04-29T09:41:29;99424.72;;;16.48;56.57
56689;BME280;42565;53.342;-1.534;2023-04-29T09:44:02;99423.53;;;15.67;56.58
56689;BME280;42565;53.342;-1.534;2023-04-29T09:46:31;99428.04;;;15.56;57.00
56689;BME280;42565;53.342;-1.534;2023-04-29T09:48:58;99427.88;;;15.39;58.28
56689;BME280;42565;53.342;-1.534;2023-04-29T09:51:25;99432.08;;;16.07;58.21
56689;BME280;42565;53.342;-1.534;2023-04-29T09:53:52;99433.99;;;16.49;55.73
56689;BME280;42565;53.342;-1.534;2023-04-29T09:56:20;99434.03;;;16.53;54.42
56689;BME280;42565;53.342;-1.534;2023-04-29T09:58:47;99432.31;;;15.68;56.72
56689;BME280;42565;53.342;-1.534;2023-04-29T10:01:15;99428.97;;;15.84;56.09
56689;BME280;42565;53.342;-1.534;2023-04-29T10:03:44;99431.34;;;16.40;55.76
56689;BME280;42565;53.342;-1.534;2023-04-29T10:06:12;99432.46;;;15.79;56.73
56689;BME280;42565;53.342;-1.534;2023-04-29T10:08:40;99436.74;;;15.80;58.08
56689;BME280;42565;53.342;-1.534;2023-04-29T10:11:07;99439.03;;;15.70;56.13
56689;BME280;42565;53.342;-1.534;2023-04-29T10:13:37;99440.95;;;15.91;54.76
56689;BME280;42565;53.342;-1.534;2023-04-29T10:16:15;99441.84;;;15.55;55.63
56689;BME280;42565;53.342;-1.534;2023-04-29T10:18:48;99442.15;;;16.29;54.74
56689;BME280;42565;53.342;-1.534;2023-04-29T10:21:20;99440.01;;;16.70;54.80
56689;BME280;42565;53.342;-1.534;2023-04-29T10:23:51;99438.93;;;15.07;57.26
56689;BME280;42565;53.342;-1.534;2023-04-29T10:26:20;99443.46;;;15.92;56.68
56689;BME280;42565;53.342;-1.534;2023-04-29T10:28:50;99441.11;;;15.95;56.60
56689;BME280;42565;53.342;-1.534;2023-04-29T10:31:19;99442.54;;;16.20;54.35
56689;BME280;42565;53.342;-1.534;2023-04-29T10:33:47;99439.85;;;15.98;55.67
56689;BME280;42565;53.342;-1.534;2023-04-29T10:36:16;99436.97;;;15.75;53.85
56689;BME280;42565;53.342;-1.534;2023-04-29T10:38:46;99434.85;;;16.35;52.78
56689;BME280;42565;53.342;-1.534;2023-04-29T10:41:19;99436.32;;;16.61;52.73
56689;BME280;42565;53.342;-1.534;2023-04-29T10:43:47;99437.17;;;15.22;55.39
56689;BME280;42565;53.342;-1.534;2023-04-29T10:46:19;99440.93;;;15.80;54.28
56689;BME280;42565;53.342;-1.534;2023-04-29T10:48:48;99439.50;;;16.17;52.78
56689;BME280;42565;53.342;-1.534;2023-04-29T10:51:28;99437.24;;;16.32;52.96
56689;BME280;42565;53.342;-1.534;2023-04-29T10:54:01;99434.28;;;16.56;53.12
56689;BME280;42565;53.342;-1.534;2023-04-29T10:56:47;99436.34;;;16.38;55.51
56689;BME280;42565;53.342;-1.534;2023-04-29T10:59:17;99436.13;;;16.65;53.03
56689;BME280;42565;53.342;-1.534;2023-04-29T11:01:47;99437.88;;;16.45;52.51
56689;BME280;42565;53.342;-1.534;2023-04-29T11:04:16;99439.21;;;15.67;55.39
56689;BME280;42565;53.342;-1.534;2023-04-29T11:06:45;99443.00;;;16.05;55.78
56689;BME280;42565;53.342;-1.534;2023-04-29T11:09:18;99441.85;;;15.90;53.60
56689;BME280;42565;53.342;-1.534;2023-04-29T11:11:55;99441.58;;;16.70;54.05
56689;BME280;42565;53.342;-1.534;2023-04-29T11:14:24;99437.69;;;16.77;53.34
56689;BME280;42565;53.342;-1.534;2023-04-29T11:16:53;99439.35;;;16.53;55.17
56689;BME280;42565;53.342;-1.534;2023-04-29T11:19:24;99438.26;;;16.62;53.57
56689;BME280;42565;53.342;-1.534;2023-04-29T11:22:07;99435.75;;;16.62;53.33
56689;BME280;42565;53.342;-1.534;2023-04-29T11:24:35;99433.39;;;16.76;54.42
56689;BME280;42565;53.342;-1.534;2023-04-29T11:27:02;99432.90;;;16.30;53.26
56689;BME280;42565;53.342;-1.534;2023-04-29T11:29:30;99430.40;;;15.82;54.73
56689;BME280;42565;53.342;-1.534;2023-04-29T11:31:58;99432.92;;;15.85;54.21
56689;BME280;42565;53.342;-1.534;2023-04-29T11:34:25;99429.55;;;16.35;53.54
56689;BME280;42565;53.342;-1.534;2023-04-29T11:36:52;99430.90;;;16.67;52.60
56689;BME280;42565;53.342;-1.534;2023-04-29T11:39:20;99427.75;;;16.77;50.88
56689;BME280;42565;53.342;-1.534;2023-04-29T11:41:48;99427.89;;;17.11;52.82
56689;BME280;42565;53.342;-1.534;2023-04-29T11:44:20;99425.28;;;17.29;50.82
56689;BME280;42565;53.342;-1.534;2023-04-29T11:46:47;99424.03;;;17.75;52.35
56689;BME280;42565;53.342;-1.534;2023-04-29T11:49:15;99423.08;;;17.75;47.80
56689;BME280;42565;53.342;-1.534;2023-04-29T11:51:42;99417.59;;;18.69;46.97
56689;BME280;42565;53.342;-1.534;2023-04-29T11:54:08;99414.08;;;17.54;46.98
56689;BME280;42565;53.342;-1.534;2023-04-29T11:56:36;99418.35;;;18.61;46.28
56689;BME280;42565;53.342;-1.534;2023-04-29T11:59:04;99415.56;;;19.11;46.94
56689;BME280;42565;53.342;-1.534;2023-04-29T12:01:31;99412.89;;;17.91;44.99
56689;BME280;42565;53.342;-1.534;2023-04-29T12:03:58;99412.47;;;18.96;45.47
56689;BME280;42565;53.342;-1.534;2023-04-29T12:06:27;99417.39;;;18.28;45.74
56689;BME280;42565;53.342;-1.534;2023-04-29T12:08:54;99420.53;;;18.08;46.70
56689;BME280;42565;53.342;-1.534;2023-04-29T12:11:25;99421.93;;;17.53;47.50
56689;BME280;42565;53.342;-1.534;2023-04-29T12:13:52;99419.65;;;18.05;47.22
56689;BME280;42565;53.342;-1.534;2023-04-29T12:16:19;99422.97;;;16.88;49.00
56689;BME280;42565;53.342;-1.534;2023-04-29T12:18:47;99422.86;;;17.05;49.54
56689;BME280;42565;53.342;-1.534;2023-04-29T12:21:14;99425.05;;;16.73;49.56
56689;BME280;42565;53.342;-1.534;2023-04-29T12:23:42;99426.93;;;16.36;50.64
56689;BME280;42565;53.342;-1.534;2023-04-29T12:26:09;99428.41;;;16.28;49.74
56689;BME280;42565;53.342;-1.534;2023-04-29T12:28:37;99425.70;;;16.97;50.59
56689;BME280;42565;53.342;-1.534;2023-04-29T12:31:08;99427.75;;;15.93;52.32
56689;BME280;42565;53.342;-1.534;2023-04-29T12:33:36;99430.45;;;16.79;51.52
56689;BME280;42565;53.342;-1.534;2023-04-29T12:36:14;99427.82;;;16.93;52.85
56689;BME280;42565;53.342;-1.534;2023-04-29T12:38:42;99428.22;;;16.26;53.97
56689;BME280;42565;53.342;-1.534;2023-04-29T12:41:08;99427.97;;;16.37;53.06
56689;BME280;42565;53.342;-1.534;2023-04-29T12:43:36;99434.22;;;16.01;57.64
56689;BME280;42565;53.342;-1.534;2023-04-29T12:46:06;99434.43;;;15.52;61.58
56689;BME280;42565;53.342;-1.534;2023-04-29T12:48:35;99435.02;;;16.12;60.10
56689;BME280;42565;53.342;-1.534;2023-04-29T12:51:04;99432.31;;;15.18;64.31
56689;BME280;42565;53.342;-1.534;2023-04-29T12:53:31;99436.26;;;15.83;63.94
56689;BME280;42565;53.342;-1.534;2023-04-29T12:55:58;99438.19;;;15.72;63.56